createdAt,value
2022-08-26T00:02:47.986Z,94761.94
2022-08-26T00:05:56.746Z,94763.84
2022-08-26T00:09:08.021Z,94759.66
2022-08-26T00:12:16.614Z,94761.16
2022-08-26T00:15:26.597Z,94763.47
2022-08-26T00:18:38.778Z,94758.84
2022-08-26T00:21:49.932Z,94754.25
2022-08-26T00:24:58.262Z,94751.53
2022-08-26T00:28:08.024Z,94748.84
2022-08-26T00:31:20.911Z,94754.22
2022-08-26T00:34:30.303Z,94753.44
2022-08-26T00:37:39.075Z,94753.06
2022-08-26T00:40:50.433Z,94752.63
2022-08-26T00:43:58.840Z,94756.50
2022-08-26T00:47:25.281Z,94757.25
2022-08-26T00:50:49.406Z,94756.88
2022-08-26T00:54:05.356Z,94758.78
2022-08-26T00:57:18.268Z,94752.59
2022-08-26T01:00:34.795Z,94747.25
2022-08-26T01:03:47.016Z,94747.22
2022-08-26T01:06:55.956Z,94744.94
2022-08-26T01:10:09.218Z,94750.69
2022-08-26T01:13:20.101Z,94744.19
2022-08-26T01:16:28.697Z,94740.69
2022-08-26T01:19:47.249Z,94746.44
2022-08-26T01:23:01.626Z,94752.16
2022-08-26T01:26:19.777Z,94751.41
2022-08-26T01:29:32.071Z,94750.25
2022-08-26T01:32:41.689Z,94752.94
2022-08-26T01:35:51.309Z,94751.03
2022-08-26T01:39:01.148Z,94749.09
2022-08-26T01:42:17.851Z,94750.25
2022-08-26T01:45:31.855Z,94744.50
2022-08-26T01:48:43.830Z,94754.88
2022-08-26T01:51:55.915Z,94752.56
2022-08-26T01:55:09.153Z,94750.16
2022-08-26T01:58:25.752Z,94742.41
2022-08-26T02:01:36.233Z,94748.16
2022-08-26T02:04:51.795Z,94751.22
2022-08-26T02:08:00.049Z,94751.25
2022-08-26T02:11:09.610Z,94748.56
2022-08-26T02:14:22.659Z,94753.94
2022-08-26T02:17:38.632Z,94753.22
2022-08-26T02:20:47.051Z,94755.91
2022-08-26T02:24:11.337Z,94755.84
2022-08-26T02:27:28.211Z,94750.06
2022-08-26T02:30:44.801Z,94747.78
2022-08-26T02:33:53.307Z,94748.56
2022-08-26T02:37:05.282Z,94743.53
2022-08-26T02:40:16.318Z,94750.03
2022-08-26T02:43:31.762Z,94745.41
2022-08-26T02:46:41.751Z,94746.97
2022-08-26T02:49:55.353Z,94751.13
2022-08-26T02:53:03.710Z,94746.06
2022-08-26T02:56:12.045Z,94748.38
2022-08-26T02:59:22.939Z,94741.88
2022-08-26T03:02:32.701Z,94741.06
2022-08-26T03:05:42.460Z,94740.66
2022-08-26T03:08:52.032Z,94738.38
2022-08-26T03:12:00.527Z,94739.16
2022-08-26T03:15:17.996Z,94744.03
2022-08-26T03:18:26.593Z,94741.72
2022-08-26T03:21:36.978Z,94734.41
2022-08-26T03:24:46.085Z,94730.53
2022-08-26T03:27:55.167Z,94734.72
2022-08-26T03:31:03.817Z,94738.09
2022-08-26T03:34:12.057Z,94737.78
2022-08-26T03:37:21.624Z,94738.78
2022-08-26T03:40:30.525Z,94739.84
2022-08-26T03:43:39.075Z,94733.66
2022-08-26T03:46:50.022Z,94741.28
2022-08-26T03:50:01.439Z,94736.69
2022-08-26T03:53:12.782Z,94730.56
2022-08-26T03:56:21.872Z,94731.28
2022-08-26T03:59:30.055Z,94734.69
2022-08-26T04:02:39.898Z,94728.88
2022-08-26T04:05:53.168Z,94727.72
2022-08-26T04:09:05.670Z,94723.13
2022-08-26T04:12:13.949Z,94734.94
2022-08-26T04:15:22.846Z,94735.28
2022-08-26T04:18:37.023Z,94731.81
2022-08-26T04:21:47.169Z,94724.59
2022-08-26T04:24:56.497Z,94736.09
2022-08-26T04:28:05.068Z,94729.97
2022-08-26T04:31:16.020Z,94731.88
2022-08-26T04:34:28.740Z,94728.88
2022-08-26T04:37:37.464Z,94729.69
2022-08-26T04:40:46.819Z,94733.19
2022-08-26T04:43:55.337Z,94735.91
2022-08-26T04:47:04.706Z,94737.81
2022-08-26T04:50:15.270Z,94730.94
2022-08-26T04:53:32.199Z,94733.25
2022-08-26T04:56:46.394Z,94737.59
2022-08-26T04:59:56.350Z,94730.38
2022-08-26T05:03:04.513Z,94739.25
2022-08-26T05:06:16.516Z,94741.91
2022-08-26T05:09:27.371Z,94745.03
2022-08-26T05:12:35.573Z,94743.22
2022-08-26T05:15:45.149Z,94752.13
2022-08-26T05:18:54.928Z,94754.84
2022-08-26T05:22:05.552Z,94754.50
2022-08-26T05:25:13.739Z,94746.91
2022-08-26T05:28:23.346Z,94757.72
2022-08-26T05:31:34.178Z,94754.00
2022-08-26T05:34:43.009Z,94755.94
2022-08-26T05:37:52.695Z,94757.91
2022-08-26T05:41:02.084Z,94762.97
2022-08-26T05:44:16.119Z,94763.00
2022-08-26T05:47:25.117Z,94767.25
2022-08-26T05:50:33.308Z,94764.25
2022-08-26T05:53:54.846Z,94768.09
2022-08-26T05:57:03.244Z,94774.19
2022-08-26T06:00:16.153Z,94757.22
2022-08-26T06:03:25.338Z,94764.06
2022-08-26T06:06:36.817Z,94767.44
2022-08-26T06:09:47.675Z,94767.72
2022-08-26T06:12:56.788Z,94768.00
2022-08-26T06:16:09.316Z,94771.72
2022-08-26T06:19:17.632Z,94775.09
2022-08-26T06:22:43.514Z,94770.81
2022-08-26T06:25:53.026Z,94769.59
2022-08-26T06:29:01.714Z,94774.38
2022-08-26T06:32:12.577Z,94767.06
2022-08-26T06:35:20.790Z,94760.22
2022-08-26T06:38:29.861Z,94767.50
2022-08-26T06:41:46.310Z,94758.16
2022-08-26T06:48:11.119Z,94769.28
2022-08-26T06:51:23.577Z,94766.84
2022-08-26T06:54:32.004Z,94775.19
2022-08-26T06:57:42.099Z,94770.59
2022-08-26T07:00:53.859Z,94760.28
2022-08-26T07:04:07.903Z,94777.50
2022-08-26T07:07:22.054Z,94777.69
2022-08-26T07:10:31.308Z,94782.19
2022-08-26T07:13:41.813Z,94774.75
2022-08-26T07:16:51.813Z,94781.16
2022-08-26T07:19:59.988Z,94769.97
2022-08-26T07:23:11.733Z,94769.84
2022-08-26T07:26:23.401Z,94773.59
2022-08-26T07:29:35.473Z,94772.66
2022-08-26T07:32:43.631Z,94778.16
2022-08-26T07:35:51.734Z,94778.41
2022-08-26T07:38:59.882Z,94781.72
2022-08-26T07:42:08.732Z,94778.00
2022-08-26T07:45:18.805Z,94779.09
2022-08-26T07:48:27.216Z,94778.03
2022-08-26T07:51:37.609Z,94777.97
2022-08-26T07:54:46.022Z,94776.00
2022-08-26T07:57:54.346Z,94781.91
2022-08-26T08:01:05.173Z,94787.78
2022-08-26T08:04:25.522Z,94778.50
2022-08-26T08:07:44.327Z,94780.28
2022-08-26T08:10:53.919Z,94771.50
2022-08-26T08:14:02.587Z,94772.72
2022-08-26T08:17:17.980Z,94769.59
2022-08-26T08:20:29.838Z,94777.78
2022-08-26T08:23:38.358Z,94771.78
2022-08-26T08:26:47.435Z,94772.72
2022-08-26T08:29:56.824Z,94778.59
2022-08-26T08:33:06.606Z,94769.59
2022-08-26T08:36:18.492Z,94774.69
2022-08-26T08:39:29.067Z,94770.41
2022-08-26T08:42:47.168Z,94768.41
2022-08-26T08:46:03.585Z,94775.41
2022-08-26T08:49:16.321Z,94770.41
2022-08-26T08:52:32.164Z,94763.25
2022-08-26T08:56:00.042Z,94770.84
2022-08-26T08:59:17.330Z,94777.66
2022-08-26T09:02:35.776Z,94765.75
2022-08-26T09:05:51.400Z,94771.22
2022-08-26T09:09:02.328Z,94762.34
2022-08-26T09:12:20.397Z,94758.88
2022-08-26T09:15:59.705Z,94753.31
2022-08-26T09:19:19.162Z,94752.59
2022-08-26T09:22:35.839Z,94757.34
2022-08-26T09:25:51.369Z,94757.69
2022-08-26T09:29:03.021Z,94753.97
2022-08-26T09:32:21.210Z,94750.81
2022-08-26T09:35:33.240Z,94746.72
2022-08-26T09:38:44.219Z,94744.88
2022-08-26T09:42:06.868Z,94740.31
2022-08-26T09:45:17.022Z,94743.75
2022-08-26T09:48:35.494Z,94736.19
2022-08-26T09:51:44.435Z,94732.22
2022-08-26T09:55:15.604Z,94725.88
2022-08-26T09:58:37.957Z,94732.88
2022-08-26T10:01:46.748Z,94730.75
2022-08-26T10:04:58.614Z,94717.59
2022-08-26T10:08:25.199Z,94715.44
2022-08-26T10:11:44.839Z,94700.50
2022-08-26T10:15:04.439Z,94702.50
2022-08-26T10:18:19.168Z,94708.25
2022-08-26T10:21:34.197Z,94702.25
2022-08-26T10:24:49.839Z,94694.63
2022-08-26T10:28:11.984Z,94693.81
2022-08-26T10:31:29.357Z,94684.22
2022-08-26T10:34:37.996Z,94685.09
2022-08-26T10:37:50.789Z,94689.44
2022-08-26T10:41:09.911Z,94687.44
2022-08-26T10:44:21.919Z,94680.72
2022-08-26T10:47:44.217Z,94674.50
2022-08-26T10:50:53.368Z,94667.94
2022-08-26T10:54:11.906Z,94675.72
2022-08-26T10:57:34.968Z,94669.19
2022-08-26T11:01:10.825Z,94661.16
2022-08-26T11:04:45.628Z,94666.81
2022-08-26T11:08:46.383Z,94662.25
2022-08-26T11:11:55.157Z,94656.09
2022-08-26T11:15:05.253Z,94648.78
2022-08-26T11:18:48.821Z,94643.41
2022-08-26T11:22:11.040Z,94636.81
2022-08-26T11:25:22.797Z,94634.22
2022-08-26T11:28:39.665Z,94625.56
2022-08-26T11:31:56.851Z,94629.41
2022-08-26T11:35:09.944Z,94621.13
2022-08-26T11:38:30.613Z,94625.19
2022-08-26T11:41:39.889Z,94615.13
2022-08-26T11:44:49.248Z,94611.75
2022-08-26T11:47:58.123Z,94617.53
2022-08-26T11:51:11.838Z,94616.19
2022-08-26T11:54:35.663Z,94605.34
2022-08-26T11:57:48.140Z,94601.41
2022-08-26T12:01:01.742Z,94596.56
2022-08-26T12:04:23.184Z,94601.56
2022-08-26T12:07:33.567Z,94603.84
2022-08-26T12:10:43.340Z,94593.94
2022-08-26T12:14:00.794Z,94586.53
2022-08-26T12:17:15.215Z,94596.06
2022-08-26T12:20:48.078Z,94590.03
2022-08-26T12:24:00.348Z,94592.91
2022-08-26T12:27:21.966Z,94590.41
2022-08-26T12:30:31.067Z,94594.91
2022-08-26T12:33:41.158Z,94587.13
2022-08-26T12:36:55.238Z,94587.50
2022-08-26T12:40:35.604Z,94578.34
2022-08-26T12:43:46.837Z,94581.94
2022-08-26T12:47:01.848Z,94583.94
2022-08-26T12:50:21.965Z,94574.22
2022-08-26T12:53:33.941Z,94568.16
2022-08-26T12:56:45.252Z,94571.16
2022-08-26T12:59:54.284Z,94563.72
2022-08-26T13:03:03.971Z,94563.41
2022-08-26T13:06:29.608Z,94549.66
2022-08-26T13:09:38.498Z,94551.91
2022-08-26T13:12:48.961Z,94551.09
2022-08-26T13:15:57.337Z,94544.69
2022-08-26T13:19:10.227Z,94536.41
2022-08-26T13:22:24.179Z,94526.56
2022-08-26T13:25:32.589Z,94536.22
2022-08-26T13:28:43.175Z,94527.91
2022-08-26T13:31:52.255Z,94530.63
2022-08-26T13:35:00.719Z,94520.13
2022-08-26T13:38:30.879Z,94509.66
2022-08-26T13:41:42.345Z,94511.94
2022-08-26T13:44:55.325Z,94518.16
2022-08-26T13:48:04.679Z,94523.47
2022-08-26T13:51:12.982Z,94519.13
2022-08-26T13:54:21.877Z,94531.28
2022-08-26T13:57:31.031Z,94516.25
2022-08-26T14:00:42.823Z,94517.16
2022-08-26T14:03:51.341Z,94516.38
2022-08-26T14:06:59.624Z,94513.84
2022-08-26T14:10:09.494Z,94513.22
2022-08-26T14:13:18.346Z,94512.38
2022-08-26T14:16:33.364Z,94513.13
2022-08-26T14:19:46.909Z,94512.88
2022-08-26T14:23:14.406Z,94513.50
2022-08-26T14:26:29.094Z,94508.63
2022-08-26T14:29:37.881Z,94514.84
2022-08-26T14:32:52.394Z,94520.13
2022-08-26T14:36:15.032Z,94510.41
2022-08-26T14:39:23.409Z,94513.50
2022-08-26T14:42:32.435Z,94505.44
2022-08-26T14:45:45.711Z,94515.28
2022-08-26T14:48:56.699Z,94514.53
2022-08-26T14:52:09.882Z,94510.34
2022-08-26T14:55:17.301Z,94501.78
2022-08-26T14:58:25.533Z,94500.00
2022-08-26T15:01:39.368Z,94497.72
2022-08-26T15:04:50.487Z,94490.75
2022-08-26T15:07:59.015Z,94488.91
2022-08-26T15:11:07.621Z,94488.75
2022-08-26T15:14:19.494Z,94491.66
2022-08-26T15:17:28.428Z,94492.03
2022-08-26T15:20:38.201Z,94496.31
2022-08-26T15:23:47.854Z,94478.84
2022-08-26T15:26:56.330Z,94478.69
2022-08-26T15:30:06.331Z,94473.53
2022-08-26T15:33:14.942Z,94472.97
2022-08-26T15:36:25.152Z,94468.63
2022-08-26T15:39:33.874Z,94471.53
2022-08-26T15:42:42.067Z,94465.34
2022-08-26T15:45:50.601Z,94457.28
2022-08-26T15:48:58.984Z,94456.06
2022-08-26T15:52:09.398Z,94459.78
2022-08-26T15:55:17.853Z,94462.03
2022-08-26T15:58:27.926Z,94454.31
2022-08-26T16:01:37.448Z,94451.31
2022-08-26T16:04:45.810Z,94446.56
2022-08-26T16:07:55.400Z,94450.22
2022-08-26T16:11:05.866Z,94453.09
2022-08-26T16:14:15.750Z,94447.81
2022-08-26T16:17:24.232Z,94447.19
2022-08-26T16:20:36.486Z,94449.59
2022-08-26T16:23:46.844Z,94457.03
2022-08-26T16:26:55.830Z,94449.25
2022-08-26T16:30:07.347Z,94459.06
2022-08-26T16:33:21.626Z,94458.94
2022-08-26T16:36:39.719Z,94456.38
2022-08-26T16:39:49.620Z,94461.81
2022-08-26T16:42:58.037Z,94462.91
2022-08-26T16:46:07.961Z,94466.25
2022-08-26T16:49:16.445Z,94473.16
2022-08-26T16:52:25.016Z,94473.75
2022-08-26T16:55:40.102Z,94473.13
2022-08-26T16:58:49.052Z,94484.38
2022-08-26T17:01:57.569Z,94490.31
2022-08-26T17:05:07.300Z,94489.78
2022-08-26T17:08:27.488Z,94491.13
2022-08-26T17:11:38.933Z,94492.19
2022-08-26T17:14:47.371Z,94487.56
2022-08-26T17:17:57.420Z,94491.03
2022-08-26T17:21:10.537Z,94486.72
2022-08-26T17:24:18.986Z,94486.06
2022-08-26T17:27:28.542Z,94485.66
2022-08-26T17:30:37.158Z,94490.31
2022-08-26T17:33:48.901Z,94485.06
2022-08-26T17:37:01.953Z,94482.13
2022-08-26T17:40:16.010Z,94481.78
2022-08-26T17:43:26.680Z,94490.66
2022-08-26T17:46:38.166Z,94485.88
2022-08-26T17:49:46.839Z,94499.94
2022-08-26T17:52:55.193Z,94497.06
2022-08-26T17:56:07.056Z,94507.38
2022-08-26T17:59:18.690Z,94511.81
2022-08-26T18:05:48.784Z,94509.63
2022-08-26T18:08:58.798Z,94521.47
2022-08-26T18:12:08.316Z,94524.72
2022-08-26T18:15:20.458Z,94529.03
2022-08-26T18:18:28.978Z,94529.13
2022-08-26T18:21:38.507Z,94531.84
2022-08-26T18:24:52.820Z,94539.47
2022-08-26T18:28:08.044Z,94531.03
2022-08-26T18:31:18.448Z,94538.22
2022-08-26T18:34:31.559Z,94535.69
2022-08-26T18:37:41.688Z,94534.09
2022-08-26T18:40:51.966Z,94532.00
2022-08-26T18:44:01.148Z,94534.50
2022-08-26T18:47:10.976Z,94546.97
2022-08-26T18:50:19.982Z,94547.72
2022-08-26T18:53:31.007Z,94543.19
2022-08-26T18:56:42.433Z,94554.31
2022-08-26T18:59:51.113Z,94547.16
2022-08-26T19:03:00.913Z,94539.84
2022-08-26T19:06:13.541Z,94542.56
2022-08-26T19:09:22.493Z,94545.78
2022-08-26T19:12:31.429Z,94551.31
2022-08-26T19:15:45.911Z,94555.78
2022-08-26T19:18:59.056Z,94562.50
2022-08-26T19:22:08.269Z,94559.16
2022-08-26T19:25:17.603Z,94581.31
2022-08-26T19:28:26.033Z,94620.50
2022-08-26T19:31:34.566Z,94612.31
2022-08-26T19:34:45.439Z,94595.44
2022-08-26T19:37:53.864Z,94614.00
2022-08-26T19:41:02.536Z,94610.69
2022-08-26T19:44:34.133Z,94608.34
2022-08-26T19:47:43.164Z,94591.84
2022-08-26T19:50:53.022Z,94587.16
2022-08-26T19:54:02.582Z,94577.59
2022-08-26T19:57:11.889Z,94567.88
2022-08-26T20:00:26.851Z,94588.16
2022-08-26T20:03:36.684Z,94605.69
2022-08-26T20:06:46.444Z,94630.78
2022-08-26T20:10:00.739Z,94640.72
2022-08-26T20:13:09.571Z,94638.03
2022-08-26T20:16:19.043Z,94631.16
2022-08-26T20:19:45.451Z,94627.78
2022-08-26T20:22:55.714Z,94617.94
2022-08-26T20:26:04.409Z,94603.78
2022-08-26T20:29:18.437Z,94611.09
2022-08-26T20:32:27.628Z,94601.53
2022-08-26T20:35:36.443Z,94607.66
2022-08-26T20:38:46.654Z,94603.03
2022-08-26T20:41:55.099Z,94601.13
2022-08-26T20:45:04.127Z,94601.19
2022-08-26T20:48:12.529Z,94594.63
2022-08-26T20:51:22.922Z,94583.91
2022-08-26T20:54:32.848Z,94590.41
2022-08-26T20:57:42.090Z,94600.44
2022-08-26T21:00:50.702Z,94595.09
2022-08-26T21:03:59.291Z,94598.56
2022-08-26T21:07:08.503Z,94613.91
2022-08-26T21:10:18.597Z,94605.84
2022-08-26T21:13:26.975Z,94611.94
2022-08-26T21:16:36.688Z,94611.16
2022-08-26T21:19:46.774Z,94609.22
2022-08-26T21:22:55.193Z,94624.88
2022-08-26T21:26:07.858Z,94643.69
2022-08-26T21:29:16.333Z,94661.28
2022-08-26T21:32:25.273Z,94658.97
2022-08-26T21:35:33.585Z,94668.88
2022-08-26T21:38:43.076Z,94672.28
2022-08-26T21:41:53.373Z,94675.00
2022-08-26T21:45:02.983Z,94665.44
2022-08-26T21:48:11.299Z,94676.22
2022-08-26T21:51:22.544Z,94687.09
2022-08-26T21:54:30.740Z,94675.13
2022-08-26T21:57:40.866Z,94666.66
2022-08-26T22:00:52.012Z,94667.81
2022-08-26T22:04:00.410Z,94667.69
2022-08-26T22:07:08.586Z,94673.00
2022-08-26T22:10:16.854Z,94667.63
2022-08-26T22:13:30.560Z,94659.97
2022-08-26T22:16:39.340Z,94668.06
2022-08-26T22:19:47.910Z,94667.97
2022-08-26T22:22:58.075Z,94661.72
2022-08-26T22:26:08.512Z,94664.97
2022-08-26T22:29:19.420Z,94662.66
2022-08-26T22:32:28.261Z,94668.34
2022-08-26T22:35:40.459Z,94681.97
2022-08-26T22:38:52.375Z,94678.69
2022-08-26T22:42:03.660Z,94674.56
2022-08-26T22:45:14.457Z,94683.28
2022-08-26T22:48:26.681Z,94677.22
2022-08-26T22:51:35.893Z,94669.56
2022-08-26T22:54:45.209Z,94678.69
2022-08-26T22:57:53.502Z,94675.47
2022-08-26T23:01:06.194Z,94678.41
2022-08-26T23:04:15.533Z,94676.88
2022-08-26T23:07:26.488Z,94676.97
2022-08-26T23:10:36.810Z,94685.19
2022-08-26T23:13:45.301Z,94691.47
2022-08-26T23:16:55.354Z,94691.50
2022-08-26T23:20:09.068Z,94684.66
2022-08-26T23:23:18.617Z,94702.53
2022-08-26T23:26:27.141Z,94707.00
2022-08-26T23:29:39.709Z,94712.81
2022-08-26T23:32:49.772Z,94718.94
2022-08-26T23:35:57.562Z,94720.50
2022-08-26T23:39:07.197Z,94721.69
2022-08-26T23:42:16.006Z,94723.28
2022-08-26T23:45:25.944Z,94722.81
2022-08-26T23:48:36.878Z,94713.59
2022-08-26T23:52:02.800Z,94721.22
2022-08-26T23:55:12.700Z,94720.84
2022-08-26T23:58:22.632Z,94720.81
